createdAt,value
2022-10-29T00:00:58.251Z,99471.15
2022-10-29T00:03:41.044Z,99470.89
2022-10-29T00:06:11.531Z,99472.86
2022-10-29T00:08:40.032Z,99476.65
2022-10-29T00:11:19.180Z,99480.54
2022-10-29T00:13:47.960Z,99483.47
2022-10-29T00:16:18.285Z,99479.25
2022-10-29T00:18:46.559Z,99476.92
2022-10-29T00:21:25.164Z,99477.48
2022-10-29T00:23:53.540Z,99480.08
2022-10-29T00:26:22.059Z,99474.11
2022-10-29T00:28:54.130Z,99477.30
2022-10-29T00:31:25.986Z,99476.70
2022-10-29T00:33:54.853Z,99472.42
2022-10-29T00:36:26.241Z,99468.69
2022-10-29T00:38:54.026Z,99470.97
2022-10-29T00:41:26.377Z,99477.58
2022-10-29T00:44:25.234Z,99479.77
2022-10-29T00:46:57.489Z,99475.65
2022-10-29T00:49:25.630Z,99478.20
2022-10-29T00:51:53.476Z,99481.27
2022-10-29T00:54:21.073Z,99481.46
2022-10-29T00:56:55.389Z,99485.16
2022-10-29T00:59:23.358Z,99478.02
2022-10-29T01:01:51.042Z,99476.63
2022-10-29T01:04:19.094Z,99471.46
2022-10-29T01:06:47.427Z,99469.93
2022-10-29T01:09:14.993Z,99467.33
2022-10-29T01:12:19.286Z,99463.02
2022-10-29T01:14:55.956Z,99463.05
2022-10-29T01:17:37.992Z,99453.01
2022-10-29T01:20:36.734Z,99455.79
2022-10-29T01:23:10.163Z,99458.06
2022-10-29T01:25:46.535Z,99458.79
2022-10-29T01:28:23.645Z,99460.46
2022-10-29T01:30:51.164Z,99457.45
2022-10-29T01:33:34.244Z,99461.45
2022-10-29T01:36:06.725Z,99455.09
2022-10-29T01:38:53.696Z,99454.66
2022-10-29T01:41:53.685Z,99452.08
2022-10-29T01:44:29.986Z,99449.83
2022-10-29T01:47:05.946Z,99448.64
2022-10-29T01:49:42.807Z,99445.20
2022-10-29T01:52:16.840Z,99440.05
2022-10-29T01:54:46.449Z,99437.77
2022-10-29T01:57:28.783Z,99438.05
2022-10-29T02:00:11.967Z,99440.02
2022-10-29T02:03:07.983Z,99437.05
2022-10-29T02:06:01.887Z,99431.81
2022-10-29T02:08:48.317Z,99428.42
2022-10-29T02:11:25.425Z,99427.98
2022-10-29T02:13:58.296Z,99434.49
2022-10-29T02:16:26.721Z,99424.48
2022-10-29T02:18:54.301Z,99418.21
2022-10-29T02:21:21.847Z,99415.98
2022-10-29T02:23:49.686Z,99413.56
2022-10-29T02:26:17.723Z,99416.39
2022-10-29T02:28:45.354Z,99412.38
2022-10-29T02:31:12.891Z,99407.80
2022-10-29T02:33:40.485Z,99409.45
2022-10-29T02:36:08.511Z,99404.65
2022-10-29T02:38:36.047Z,99396.64
2022-10-29T02:41:03.705Z,99397.73
2022-10-29T02:43:31.245Z,99407.36
2022-10-29T02:46:16.725Z,99403.85
2022-10-29T02:48:45.049Z,99398.16
2022-10-29T02:51:12.863Z,99396.96
2022-10-29T02:53:40.878Z,99394.77
2022-10-29T02:56:08.833Z,99389.70
2022-10-29T02:58:37.057Z,99386.35
2022-10-29T03:01:05.097Z,99389.62
2022-10-29T03:03:32.667Z,99388.69
2022-10-29T03:06:00.213Z,99400.31
2022-10-29T03:08:27.755Z,99400.38
2022-10-29T03:10:55.911Z,99400.06
2022-10-29T03:13:23.540Z,99402.17
2022-10-29T03:15:51.075Z,99404.86
2022-10-29T03:18:18.585Z,99404.33
2022-10-29T03:20:47.559Z,99409.23
2022-10-29T03:23:15.108Z,99409.66
2022-10-29T03:25:42.689Z,99406.41
2022-10-29T03:28:10.593Z,99402.81
2022-10-29T03:30:38.219Z,99403.29
2022-10-29T03:33:05.759Z,99403.92
2022-10-29T03:35:33.314Z,99394.61
2022-10-29T03:38:00.925Z,99392.75
2022-10-29T03:40:28.571Z,99387.95
2022-10-29T03:42:56.361Z,99386.71
2022-10-29T03:45:24.283Z,99377.64
2022-10-29T03:47:51.852Z,99370.89
2022-10-29T03:50:19.464Z,99370.61
2022-10-29T03:52:47.031Z,99367.41
2022-10-29T03:55:14.641Z,99369.01
2022-10-29T03:57:42.174Z,99367.77
2022-10-29T04:00:10.302Z,99370.62
2022-10-29T04:02:40.871Z,99373.25
2022-10-29T04:05:08.845Z,99383.15
2022-10-29T04:07:36.586Z,99383.57
2022-10-29T04:10:04.874Z,99378.43
2022-10-29T04:12:32.474Z,99379.13
2022-10-29T04:14:59.992Z,99376.48
2022-10-29T04:17:27.518Z,99363.83
2022-10-29T04:19:55.034Z,99362.73
2022-10-29T04:30:45.485Z,99373.06
2022-10-29T04:33:13.023Z,99367.40
2022-10-29T04:35:40.571Z,99367.23
2022-10-29T04:38:11.813Z,99374.96
2022-10-29T04:40:39.575Z,99370.70
2022-10-29T04:43:07.112Z,99375.67
2022-10-29T04:45:34.760Z,99371.46
2022-10-29T04:48:04.118Z,99381.90
2022-10-29T04:50:32.353Z,99388.20
2022-10-29T04:53:01.095Z,99387.91
2022-10-29T04:55:29.249Z,99388.94
2022-10-29T04:57:57.441Z,99383.63
2022-10-29T05:00:25.428Z,99382.83
2022-10-29T05:02:53.370Z,99385.13
2022-10-29T05:05:21.487Z,99395.53
2022-10-29T05:07:49.199Z,99406.15
2022-10-29T05:10:16.820Z,99415.27
2022-10-29T05:12:44.336Z,99418.50
2022-10-29T05:15:11.915Z,99420.49
2022-10-29T05:17:39.476Z,99418.69
2022-10-29T05:20:07.935Z,99414.71
2022-10-29T05:22:35.464Z,99416.11
2022-10-29T05:25:03.141Z,99418.48
2022-10-29T05:27:31.174Z,99415.59
2022-10-29T05:29:58.832Z,99415.52
2022-10-29T05:32:29.025Z,99416.33
2022-10-29T05:34:56.832Z,99418.72
2022-10-29T05:37:30.545Z,99417.11
2022-10-29T05:39:58.085Z,99410.13
2022-10-29T05:42:25.616Z,99409.89
2022-10-29T05:44:53.170Z,99408.63
2022-10-29T05:47:20.728Z,99406.54
2022-10-29T05:49:48.231Z,99405.72
2022-10-29T05:52:15.774Z,99410.72
2022-10-29T05:54:43.309Z,99417.02
2022-10-29T05:57:10.836Z,99419.42
2022-10-29T05:59:38.449Z,99424.70
2022-10-29T06:02:06.525Z,99426.69
2022-10-29T06:04:34.344Z,99424.33
2022-10-29T06:07:01.858Z,99425.27
2022-10-29T06:09:29.401Z,99429.77
2022-10-29T06:11:57.185Z,99434.14
2022-10-29T06:14:24.758Z,99432.59
2022-10-29T06:16:52.286Z,99430.66
2022-10-29T06:19:19.893Z,99429.77
2022-10-29T06:21:47.404Z,99440.35
2022-10-29T06:24:14.932Z,99442.23
2022-10-29T06:26:42.491Z,99444.92
2022-10-29T06:29:10.046Z,99446.75
2022-10-29T06:31:37.629Z,99446.63
2022-10-29T06:34:05.181Z,99452.66
2022-10-29T06:36:34.053Z,99448.23
2022-10-29T06:39:01.686Z,99455.29
2022-10-29T06:41:29.304Z,99451.79
2022-10-29T06:43:57.659Z,99456.76
2022-10-29T06:46:25.185Z,99455.47
2022-10-29T06:48:52.811Z,99459.57
2022-10-29T06:51:20.365Z,99455.95
2022-10-29T06:53:49.079Z,99463.87
2022-10-29T06:56:16.620Z,99466.41
2022-10-29T06:58:44.267Z,99461.14
2022-10-29T07:01:11.865Z,99460.48
2022-10-29T07:03:39.457Z,99471.41
2022-10-29T07:06:07.515Z,99473.13
2022-10-29T07:08:35.091Z,99478.56
2022-10-29T07:11:03.107Z,99473.80
2022-10-29T07:13:30.657Z,99472.73
2022-10-29T07:15:58.229Z,99472.91
2022-10-29T07:18:25.807Z,99469.71
2022-10-29T07:20:53.406Z,99472.62
2022-10-29T07:23:20.969Z,99469.30
2022-10-29T07:25:48.571Z,99466.58
2022-10-29T07:28:23.183Z,99472.67
2022-10-29T07:30:53.635Z,99475.02
2022-10-29T07:33:21.270Z,99474.63
2022-10-29T07:35:49.204Z,99478.54
2022-10-29T07:38:16.804Z,99475.23
2022-10-29T07:40:49.622Z,99471.73
2022-10-29T07:43:18.599Z,99474.95
2022-10-29T07:45:49.809Z,99472.81
2022-10-29T07:48:19.298Z,99469.61
2022-10-29T07:50:47.412Z,99467.09
2022-10-29T07:53:15.482Z,99475.14
2022-10-29T07:55:43.064Z,99478.45
2022-10-29T07:58:12.269Z,99484.04
2022-10-29T08:00:42.672Z,99485.20
2022-10-29T08:03:11.872Z,99487.66
2022-10-29T08:05:42.694Z,99487.58
2022-10-29T08:08:10.846Z,99483.20
2022-10-29T08:10:38.406Z,99485.39
2022-10-29T08:13:07.070Z,99486.27
2022-10-29T08:15:35.015Z,99482.69
2022-10-29T08:18:03.776Z,99482.90
2022-10-29T08:20:31.447Z,99483.90
2022-10-29T08:23:00.937Z,99485.54
2022-10-29T08:25:29.187Z,99477.56
2022-10-29T08:28:04.530Z,99473.08
2022-10-29T08:30:32.470Z,99474.34
2022-10-29T08:33:01.575Z,99477.05
2022-10-29T08:35:31.584Z,99476.66
2022-10-29T08:37:59.880Z,99475.58
2022-10-29T08:40:30.756Z,99477.91
2022-10-29T08:43:15.289Z,99479.27
2022-10-29T08:45:48.912Z,99478.21
2022-10-29T08:48:25.616Z,99478.88
2022-10-29T08:50:59.426Z,99480.00
2022-10-29T08:53:58.940Z,99484.14
2022-10-29T08:56:37.650Z,99489.41
2022-10-29T08:59:15.052Z,99485.90
2022-10-29T09:01:43.249Z,99482.65
2022-10-29T09:04:37.807Z,99479.68
2022-10-29T09:07:29.057Z,99476.06
2022-10-29T09:09:57.633Z,99476.14
2022-10-29T09:13:02.736Z,99478.02
2022-10-29T09:15:53.381Z,99475.55
2022-10-29T09:19:13.979Z,99482.83
2022-10-29T09:22:00.154Z,99492.38
2022-10-29T09:24:58.914Z,99496.65
2022-10-29T09:28:00.976Z,99510.08
2022-10-29T09:30:31.291Z,99508.70
2022-10-29T09:33:12.281Z,99507.72
2022-10-29T09:35:48.412Z,99508.52
2022-10-29T09:39:04.531Z,99513.56
2022-10-29T09:41:33.891Z,99508.48
2022-10-29T09:44:19.079Z,99503.20
2022-10-29T09:47:00.590Z,99511.40
2022-10-29T09:49:42.444Z,99513.95
2022-10-29T09:52:26.719Z,99508.40
2022-10-29T09:54:54.514Z,99507.05
2022-10-29T09:57:24.106Z,99513.94
2022-10-29T10:00:06.066Z,99500.82
2022-10-29T10:02:44.208Z,99501.46
2022-10-29T10:05:18.615Z,99514.03
2022-10-29T10:08:08.061Z,99511.00
2022-10-29T10:10:55.925Z,99507.58
2022-10-29T10:13:27.605Z,99497.94
2022-10-29T10:16:00.876Z,99496.26
2022-10-29T10:18:31.242Z,99499.80
2022-10-29T10:21:15.204Z,99501.66
2022-10-29T10:23:46.618Z,99507.23
2022-10-29T10:26:26.228Z,99513.58
2022-10-29T10:29:12.687Z,99511.04
2022-10-29T10:31:44.689Z,99503.51
2022-10-29T10:34:21.178Z,99497.59
2022-10-29T10:36:54.429Z,99495.64
2022-10-29T10:39:28.740Z,99500.66
2022-10-29T10:41:59.761Z,99494.63
2022-10-29T10:44:28.112Z,99497.73
2022-10-29T10:46:58.348Z,99492.92
2022-10-29T10:49:35.831Z,99498.66
2022-10-29T10:52:06.700Z,99507.95
2022-10-29T10:54:41.876Z,99511.67
2022-10-29T10:57:12.716Z,99507.15
2022-10-29T10:59:55.902Z,99505.39
2022-10-29T11:02:31.943Z,99503.51
2022-10-29T11:05:08.162Z,99499.80
2022-10-29T11:07:37.545Z,99500.66
2022-10-29T11:10:06.716Z,99488.29
2022-10-29T11:12:46.816Z,99490.08
2022-10-29T11:15:38.128Z,99496.82
2022-10-29T11:21:04.350Z,99500.38
2022-10-29T11:23:45.907Z,99496.02
2022-10-29T11:26:18.015Z,99496.08
2022-10-29T11:28:59.779Z,99491.94
2022-10-29T11:31:41.685Z,99497.61
2022-10-29T11:34:24.815Z,99497.39
2022-10-29T11:37:00.529Z,99498.23
2022-10-29T11:39:34.925Z,99492.33
2022-10-29T11:42:02.696Z,99493.17
2022-10-29T11:44:37.537Z,99489.09
2022-10-29T11:47:17.036Z,99484.91
2022-10-29T11:50:10.249Z,99487.85
2022-10-29T11:52:43.383Z,99484.50
2022-10-29T11:55:23.800Z,99488.64
2022-10-29T11:57:59.398Z,99476.37
2022-10-29T12:00:32.266Z,99472.64
2022-10-29T12:03:36.997Z,99468.58
2022-10-29T12:06:25.796Z,99470.48
2022-10-29T12:09:20.978Z,99472.20
2022-10-29T12:11:57.323Z,99475.88
2022-10-29T12:14:40.468Z,99477.09
2022-10-29T12:17:13.825Z,99471.02
2022-10-29T12:19:58.780Z,99473.88
2022-10-29T12:23:02.556Z,99481.28
2022-10-29T12:25:51.520Z,99483.48
2022-10-29T12:28:34.999Z,99482.90
2022-10-29T12:31:20.954Z,99481.83
2022-10-29T12:33:59.564Z,99486.61
2022-10-29T12:36:44.176Z,99487.52
2022-10-29T12:39:34.609Z,99494.75
2022-10-29T12:42:07.093Z,99497.10
2022-10-29T12:44:46.100Z,99487.57
2022-10-29T12:47:40.278Z,99481.06
2022-10-29T12:50:35.840Z,99474.62
2022-10-29T12:53:28.001Z,99477.84
2022-10-29T12:55:57.235Z,99474.91
2022-10-29T12:59:22.733Z,99476.16
2022-10-29T13:05:09.589Z,99480.58
2022-10-29T13:07:46.281Z,99481.11
2022-10-29T13:10:22.875Z,99479.52
2022-10-29T13:12:59.908Z,99478.71
2022-10-29T13:15:31.280Z,99477.27
2022-10-29T13:18:21.644Z,99483.75
2022-10-29T13:20:52.375Z,99482.40
2022-10-29T13:23:22.758Z,99483.14
2022-10-29T13:25:55.900Z,99477.65
2022-10-29T13:28:23.415Z,99475.90
2022-10-29T13:31:14.004Z,99470.73
2022-10-29T13:33:41.654Z,99473.95
2022-10-29T13:36:19.008Z,99475.13
2022-10-29T13:39:04.535Z,99478.87
2022-10-29T13:41:43.608Z,99481.05
2022-10-29T13:44:14.129Z,99477.86
2022-10-29T13:46:51.283Z,99473.36
2022-10-29T13:49:25.071Z,99472.71
2022-10-29T13:51:59.411Z,99474.31
2022-10-29T13:54:30.652Z,99475.56
2022-10-29T13:57:00.287Z,99477.52
2022-10-29T13:59:43.659Z,99478.07
2022-10-29T14:02:25.921Z,99479.17
2022-10-29T14:05:03.953Z,99483.40
2022-10-29T14:07:41.894Z,99487.41
2022-10-29T14:10:22.126Z,99490.12
2022-10-29T14:12:52.005Z,99486.77
2022-10-29T14:15:19.713Z,99481.61
2022-10-29T14:17:47.510Z,99484.35
2022-10-29T14:20:27.006Z,99483.74
2022-10-29T14:22:55.318Z,99485.92
2022-10-29T14:25:33.923Z,99481.33
2022-10-29T14:28:23.797Z,99488.45
2022-10-29T14:31:00.567Z,99482.05
2022-10-29T14:33:30.839Z,99477.92
2022-10-29T14:36:11.934Z,99475.89
2022-10-29T14:38:43.382Z,99483.36
2022-10-29T14:41:11.494Z,99482.54
2022-10-29T14:43:39.800Z,99482.45
2022-10-29T14:46:34.545Z,99481.98
2022-10-29T14:49:15.310Z,99478.66
2022-10-29T14:51:50.683Z,99479.39
2022-10-29T14:54:22.551Z,99476.38
2022-10-29T14:56:54.085Z,99481.17
2022-10-29T14:59:26.431Z,99475.86
2022-10-29T15:02:05.504Z,99483.10
2022-10-29T15:05:01.848Z,99483.91
2022-10-29T15:07:35.968Z,99485.46
2022-10-29T15:10:15.776Z,99484.61
2022-10-29T15:12:45.579Z,99487.02
2022-10-29T15:15:28.038Z,99489.38
2022-10-29T15:18:18.712Z,99491.64
2022-10-29T15:20:46.755Z,99490.65
2022-10-29T15:23:28.335Z,99494.27
2022-10-29T15:26:02.386Z,99488.84
2022-10-29T15:28:32.016Z,99489.59
2022-10-29T15:31:03.488Z,99491.57
2022-10-29T15:33:31.739Z,99493.52
2022-10-29T15:36:01.646Z,99496.10
2022-10-29T15:38:29.874Z,99487.33
2022-10-29T15:41:12.611Z,99483.73
2022-10-29T15:43:55.062Z,99487.98
2022-10-29T15:46:25.437Z,99483.96
2022-10-29T15:48:53.355Z,99478.95
2022-10-29T15:51:29.597Z,99481.44
2022-10-29T15:53:58.911Z,99483.14
2022-10-29T15:56:26.615Z,99481.79
2022-10-29T15:58:54.787Z,99487.50
2022-10-29T16:01:22.469Z,99492.35
2022-10-29T16:03:50.235Z,99493.88
2022-10-29T16:06:17.971Z,99499.63
2022-10-29T16:08:51.464Z,99497.36
2022-10-29T16:11:22.984Z,99499.85
2022-10-29T16:13:54.423Z,99505.98
2022-10-29T16:16:24.819Z,99504.48
2022-10-29T16:18:53.334Z,99503.45
2022-10-29T16:21:25.434Z,99499.30
2022-10-29T16:23:53.673Z,99498.88
2022-10-29T16:26:23.235Z,99501.73
2022-10-29T16:28:53.274Z,99500.17
2022-10-29T16:31:26.090Z,99500.62
2022-10-29T16:33:56.568Z,99499.75
2022-10-29T16:36:24.752Z,99501.30
2022-10-29T16:38:52.514Z,99502.61
2022-10-29T16:41:20.599Z,99500.70
2022-10-29T16:43:48.274Z,99501.55
2022-10-29T16:46:16.370Z,99504.95
2022-10-29T16:48:44.147Z,99506.65
2022-10-29T16:51:11.872Z,99505.43
2022-10-29T16:53:39.892Z,99503.78
2022-10-29T16:56:07.696Z,99502.17
2022-10-29T16:58:36.498Z,99505.73
2022-10-29T17:01:08.369Z,99502.65
2022-10-29T17:03:38.951Z,99500.33
2022-10-29T17:06:08.673Z,99498.31
2022-10-29T17:08:37.733Z,99499.22
2022-10-29T17:11:06.355Z,99496.36
2022-10-29T17:13:34.751Z,99499.27
2022-10-29T17:16:14.789Z,99498.23
2022-10-29T17:18:42.471Z,99504.88
2022-10-29T17:21:10.940Z,99507.61
2022-10-29T17:23:38.657Z,99506.52
2022-10-29T17:26:06.172Z,99511.74
2022-10-29T17:28:36.578Z,99512.66
2022-10-29T17:31:11.374Z,99510.45
2022-10-29T17:33:38.924Z,99501.77
2022-10-29T17:36:11.189Z,99501.94
2022-10-29T17:38:39.080Z,99502.15
2022-10-29T17:41:07.462Z,99502.09
2022-10-29T17:43:36.442Z,99492.27
2022-10-29T17:46:04.096Z,99487.86
2022-10-29T17:48:31.804Z,99489.77
2022-10-29T17:51:01.845Z,99489.13
2022-10-29T17:53:30.905Z,99485.87
2022-10-29T17:55:59.701Z,99485.66
2022-10-29T17:58:28.570Z,99495.20
2022-10-29T18:01:02.886Z,99496.80
2022-10-29T18:03:30.646Z,99492.45
2022-10-29T18:06:00.623Z,99488.04
2022-10-29T18:08:29.013Z,99492.23
2022-10-29T18:11:14.544Z,99491.09
2022-10-29T18:13:44.120Z,99496.16
2022-10-29T18:16:14.541Z,99498.39
2022-10-29T18:18:54.805Z,99496.98
2022-10-29T18:21:30.559Z,99496.04
2022-10-29T18:23:58.343Z,99495.27
2022-10-29T18:26:28.446Z,99495.10
2022-10-29T18:28:57.618Z,99494.83
2022-10-29T18:31:27.986Z,99495.96
2022-10-29T18:33:56.594Z,99495.85
2022-10-29T18:36:24.586Z,99497.42
2022-10-29T18:38:53.967Z,99497.80
2022-10-29T18:41:22.356Z,99494.54
2022-10-29T18:43:50.825Z,99494.16
2022-10-29T18:46:19.900Z,99496.31
2022-10-29T18:48:48.674Z,99506.70
2022-10-29T18:51:25.159Z,99503.18
2022-10-29T18:53:54.004Z,99502.82
2022-10-29T18:56:23.018Z,99503.45
2022-10-29T18:58:51.126Z,99510.19
2022-10-29T19:01:22.588Z,99511.73
2022-10-29T19:03:52.342Z,99509.42
2022-10-29T19:06:21.016Z,99509.42
2022-10-29T19:08:49.049Z,99505.98
2022-10-29T19:11:20.530Z,99508.00
2022-10-29T19:13:59.678Z,99509.17
2022-10-29T19:16:28.165Z,99520.19
2022-10-29T19:18:57.891Z,99523.77
2022-10-29T19:21:26.086Z,99524.70
2022-10-29T19:23:55.918Z,99517.15
2022-10-29T19:26:24.824Z,99508.56
2022-10-29T19:28:53.045Z,99512.90
2022-10-29T19:31:23.672Z,99514.38
2022-10-29T19:33:53.393Z,99519.95
2022-10-29T19:36:21.903Z,99525.36
2022-10-29T19:38:49.931Z,99533.19
2022-10-29T19:41:18.005Z,99545.16
2022-10-29T19:43:46.047Z,99543.31
2022-10-29T19:46:18.718Z,99541.84
2022-10-29T19:48:53.976Z,99539.86
2022-10-29T19:51:22.309Z,99543.29
2022-10-29T19:53:52.702Z,99535.52
2022-10-29T19:56:21.127Z,99538.09
2022-10-29T19:58:48.915Z,99535.14
2022-10-29T20:01:18.133Z,99538.43
2022-10-29T20:03:46.912Z,99540.67
2022-10-29T20:06:15.205Z,99541.52
2022-10-29T20:08:43.122Z,99535.61
2022-10-29T20:11:10.666Z,99531.45
2022-10-29T20:13:39.976Z,99534.55
2022-10-29T20:16:10.040Z,99530.28
2022-10-29T20:18:38.339Z,99528.36
2022-10-29T20:23:40.278Z,99528.41
2022-10-29T20:26:08.231Z,99529.83
2022-10-29T20:28:36.221Z,99528.73
2022-10-29T20:31:17.706Z,99525.09
2022-10-29T20:33:58.869Z,99521.58
2022-10-29T20:36:32.178Z,99515.36
2022-10-29T20:39:00.616Z,99517.31
2022-10-29T20:41:29.701Z,99513.88
2022-10-29T20:43:59.123Z,99506.17
2022-10-29T20:46:27.414Z,99503.03
2022-10-29T20:48:55.612Z,99506.05
2022-10-29T20:51:23.949Z,99503.30
2022-10-29T20:53:52.536Z,99507.95
2022-10-29T20:56:22.308Z,99506.12
2022-10-29T20:58:49.959Z,99510.35
2022-10-29T21:01:19.747Z,99511.59
2022-10-29T21:03:52.173Z,99511.08
2022-10-29T21:06:20.434Z,99510.38
2022-10-29T21:08:50.915Z,99511.75
2022-10-29T21:11:20.091Z,99514.44
2022-10-29T21:13:47.695Z,99513.58
2022-10-29T21:16:22.321Z,99512.37
2022-10-29T21:18:52.429Z,99512.41
2022-10-29T21:21:19.985Z,99515.17
2022-10-29T21:23:47.682Z,99517.41
2022-10-29T21:26:18.179Z,99516.03
2022-10-29T21:28:45.906Z,99515.86
2022-10-29T21:31:13.477Z,99515.02
2022-10-29T21:33:41.108Z,99511.58
2022-10-29T21:36:10.354Z,99511.91
2022-10-29T21:38:37.864Z,99512.20
2022-10-29T21:41:05.642Z,99516.67
2022-10-29T21:43:33.381Z,99508.33
2022-10-29T21:46:01.034Z,99506.77
2022-10-29T21:48:29.515Z,99506.23
2022-10-29T21:51:05.775Z,99509.50
2022-10-29T21:53:33.858Z,99503.33
2022-10-29T21:56:06.288Z,99505.10
2022-10-29T21:58:34.828Z,99499.04
2022-10-29T22:01:16.037Z,99493.23
2022-10-29T22:03:46.018Z,99496.19
2022-10-29T22:06:15.891Z,99496.73
2022-10-29T22:08:44.954Z,99495.09
2022-10-29T22:11:13.869Z,99489.20
2022-10-29T22:13:41.469Z,99484.17
2022-10-29T22:16:10.199Z,99479.13
2022-10-29T22:18:38.271Z,99485.61
2022-10-29T22:21:11.023Z,99480.65
2022-10-29T22:23:43.177Z,99465.00
2022-10-29T22:26:11.450Z,99468.63
2022-10-29T22:28:39.331Z,99472.88
2022-10-29T22:31:07.315Z,99472.50
2022-10-29T22:33:35.114Z,99479.47
2022-10-29T22:36:04.795Z,99479.57
2022-10-29T22:38:32.712Z,99474.05
2022-10-29T22:41:07.186Z,99471.27
2022-10-29T22:43:35.099Z,99473.52
2022-10-29T22:46:04.105Z,99467.04
2022-10-29T22:48:31.991Z,99463.84
2022-10-29T22:51:04.449Z,99456.78
2022-10-29T22:53:33.231Z,99455.45
2022-10-29T22:56:01.580Z,99458.38
2022-10-29T22:58:29.220Z,99461.07
2022-10-29T23:01:09.016Z,99464.95
2022-10-29T23:03:38.471Z,99464.45
2022-10-29T23:06:08.421Z,99464.09
2022-10-29T23:08:36.212Z,99461.30
2022-10-29T23:11:09.102Z,99460.94
2022-10-29T23:13:36.777Z,99464.95
2022-10-29T23:16:04.912Z,99465.79
2022-10-29T23:18:32.430Z,99462.33
2022-10-29T23:21:01.915Z,99463.48
2022-10-29T23:23:30.850Z,99473.23
2022-10-29T23:26:03.386Z,99471.17
2022-10-29T23:28:33.209Z,99466.88
2022-10-29T23:31:02.044Z,99461.70
2022-10-29T23:33:30.553Z,99460.59
2022-10-29T23:36:02.386Z,99457.39
2022-10-29T23:38:30.886Z,99459.33
2022-10-29T23:40:58.937Z,99460.52
2022-10-29T23:43:27.110Z,99453.60
2022-10-29T23:45:54.665Z,99454.64
2022-10-29T23:48:22.837Z,99446.95
2022-10-29T23:50:51.713Z,99443.31
2022-10-29T23:53:19.778Z,99437.07
2022-10-29T23:55:47.357Z,99447.85
2022-10-29T23:58:15.273Z,99452.44
